sensor_id;sensor_type;location;lat;lon;timestamp;pressure;altitude;pressure_sealevel;temperature;humidity
27908;BME280;15249;48.092;11.484;2022-10-16T00:00:09;0;;;0;0
27908;BME280;15249;48.092;11.484;2022-10-16T00:01:14;0;;;0;0
27908;BME280;15249;48.092;11.484;2022-10-16T00:02:15;0;;;0;0
27908;BME280;15249;48.092;11.484;2022-10-16T00:03:15;0;;;0;0
27908;BME280;15249;48.092;11.484;2022-10-16T00:04:16;0;;;0;0
27908;BME280;15249;48.092;11.484;2022-10-16T00:05:16;0;;;0;0
27908;BME280;15249;48.092;11.484;2022-10-16T00:06:18;0;;;0;0
27908;BME280;15249;48.092;11.484;2022-10-16T00:07:19;0;;;0;0
27908;BME280;15249;48.092;11.484;2022-10-16T00:08:20;0;;;0;0
27908;BME280;15249;48.092;11.484;2022-10-16T00:09:20;0;;;0;0
27908;BME280;15249;48.092;11.484;2022-10-16T00:10:21;0;;;0;0
27908;BME280;15249;48.092;11.484;2022-10-16T08:33:47;0;;;0;0
27908;BME280;15249;48.092;11.484;2022-10-16T08:34:48;0;;;0;0
27908;BME280;15249;48.092;11.484;2022-10-16T08:35:51;0;;;0;0
27908;BME280;15249;48.092;11.484;2022-10-16T08:36:53;0;;;0;0
27908;BME280;15249;48.092;11.484;2022-10-16T08:37:53;0;;;0;0
27908;BME280;15249;48.092;11.484;2022-10-16T08:38:54;0;;;0;0
27908;BME280;15249;48.092;11.484;2022-10-16T08:39:54;0;;;0;0
27908;BME280;15249;48.092;11.484;2022-10-16T08:41:02;0;;;0;0
27908;BME280;15249;48.092;11.484;2022-10-16T08:42:20;0;;;0;0
27908;BME280;15249;48.092;11.484;2022-10-16T08:43:35;0;;;0;0
27908;BME280;15249;48.092;11.484;2022-10-16T08:44:57;0;;;0;0
27908;BME280;15249;48.092;11.484;2022-10-16T08:46:13;0;;;0;0
27908;BME280;15249;48.092;11.484;2022-10-16T08:47:19;0;;;0;0
27908;BME280;15249;48.092;11.484;2022-10-16T08:48:29;0;;;0;0
27908;BME280;15249;48.092;11.484;2022-10-16T08:49:31;0;;;0;0
27908;BME280;15249;48.092;11.484;2022-10-16T08:50:36;0;;;0;0
27908;BME280;15249;48.092;11.484;2022-10-16T08:51:38;0;;;0;0
27908;BME280;15249;48.092;11.484;2022-10-16T08:52:42;0;;;0;0
27908;BME280;15249;48.092;11.484;2022-10-16T08:53:49;0;;;0;0
27908;BME280;15249;48.092;11.484;2022-10-16T08:54:54;0;;;0;0
27908;BME280;15249;48.092;11.484;2022-10-16T08:55:55;0;;;0;0
27908;BME280;15249;48.092;11.484;2022-10-16T08:56:56;0;;;0;0
27908;BME280;15249;48.092;11.484;2022-10-16T08:57:59;0;;;0;0
27908;BME280;15249;48.092;11.484;2022-10-16T08:59:00;0;;;0;0
27908;BME280;15249;48.092;11.484;2022-10-16T09:00:08;0;;;0;0
27908;BME280;15249;48.092;11.484;2022-10-16T09:01:14;0;;;0;0
27908;BME280;15249;48.092;11.484;2022-10-16T09:02:24;0;;;0;0
27908;BME280;15249;48.092;11.484;2022-10-16T09:03:37;0;;;0;0
27908;BME280;15249;48.092;11.484;2022-10-16T09:04:51;0;;;0;0
27908;BME280;15249;48.092;11.484;2022-10-16T09:06:04;0;;;0;0
27908;BME280;15249;48.092;11.484;2022-10-16T09:07:10;0;;;0;0
27908;BME280;15249;48.092;11.484;2022-10-16T09:08:21;0;;;0;0
27908;BME280;15249;48.092;11.484;2022-10-16T09:09:36;0;;;0;0
27908;BME280;15249;48.092;11.484;2022-10-16T09:10:46;0;;;0;0
27908;BME280;15249;48.092;11.484;2022-10-16T09:11:54;0;;;0;0
27908;BME280;15249;48.092;11.484;2022-10-16T09:13:02;0;;;0;0
27908;BME280;15249;48.092;11.484;2022-10-16T09:14:23;0;;;0;0
27908;BME280;15249;48.092;11.484;2022-10-16T09:15:33;0;;;0;0
27908;BME280;15249;48.092;11.484;2022-10-16T09:16:37;0;;;0;0
27908;BME280;15249;48.092;11.484;2022-10-16T09:17:49;0;;;0;0
27908;BME280;15249;48.092;11.484;2022-10-16T09:18:59;0;;;0;0
27908;BME280;15249;48.092;11.484;2022-10-16T09:20:14;0;;;0;0
27908;BME280;15249;48.092;11.484;2022-10-16T09:21:21;0;;;0;0
27908;BME280;15249;48.092;11.484;2022-10-16T09:22:27;0;;;0;0
27908;BME280;15249;48.092;11.484;2022-10-16T09:23:28;0;;;0;0
27908;BME280;15249;48.092;11.484;2022-10-16T09:24:29;0;;;0;0
27908;BME280;15249;48.092;11.484;2022-10-16T09:25:31;0;;;0;0
27908;BME280;15249;48.092;11.484;2022-10-16T09:26:32;0;;;0;0
27908;BME280;15249;48.092;11.484;2022-10-16T09:27:33;0;;;0;0
27908;BME280;15249;48.092;11.484;2022-10-16T09:28:34;0;;;0;0
27908;BME280;15249;48.092;11.484;2022-10-16T09:29:34;0;;;0;0
27908;BME280;15249;48.092;11.484;2022-10-16T09:30:35;0;;;0;0
27908;BME280;15249;48.092;11.484;2022-10-16T09:31:36;0;;;0;0
27908;BME280;15249;48.092;11.484;2022-10-16T09:32:38;0;;;0;0
27908;BME280;15249;48.092;11.484;2022-10-16T09:33:40;0;;;0;0
27908;BME280;15249;48.092;11.484;2022-10-16T09:34:43;0;;;0;0
27908;BME280;15249;48.092;11.484;2022-10-16T09:35:48;0;;;0;0
27908;BME280;15249;48.092;11.484;2022-10-16T09:36:49;0;;;0;0
27908;BME280;15249;48.092;11.484;2022-10-16T09:37:51;0;;;0;0
27908;BME280;15249;48.092;11.484;2022-10-16T09:39:03;0;;;0;0
27908;BME280;15249;48.092;11.484;2022-10-16T09:40:05;0;;;0;0
27908;BME280;15249;48.092;11.484;2022-10-16T09:41:15;0;;;0;0
27908;BME280;15249;48.092;11.484;2022-10-16T09:42:17;0;;;0;0
27908;BME280;15249;48.092;11.484;2022-10-16T09:43:22;0;;;0;0
27908;BME280;15249;48.092;11.484;2022-10-16T09:44:26;0;;;0;0
27908;BME280;15249;48.092;11.484;2022-10-16T09:45:29;0;;;0;0
27908;BME280;15249;48.092;11.484;2022-10-16T09:46:31;0;;;0;0
27908;BME280;15249;48.092;11.484;2022-10-16T09:47:37;0;;;0;0
27908;BME280;15249;48.092;11.484;2022-10-16T09:48:44;0;;;0;0
27908;BME280;15249;48.092;11.484;2022-10-16T09:49:51;0;;;0;0
27908;BME280;15249;48.092;11.484;2022-10-16T09:50:56;0;;;0;0
27908;BME280;15249;48.092;11.484;2022-10-16T09:52:05;0;;;0;0
27908;BME280;15249;48.092;11.484;2022-10-16T09:53:12;0;;;0;0
27908;BME280;15249;48.092;11.484;2022-10-16T09:54:16;0;;;0;0
27908;BME280;15249;48.092;11.484;2022-10-16T09:55:18;0;;;0;0
27908;BME280;15249;48.092;11.484;2022-10-16T09:56:24;0;;;0;0
27908;BME280;15249;48.092;11.484;2022-10-16T09:57:26;0;;;0;0
27908;BME280;15249;48.092;11.484;2022-10-16T09:58:26;0;;;0;0
27908;BME280;15249;48.092;11.484;2022-10-16T09:59:31;0;;;0;0
27908;BME280;15249;48.092;11.484;2022-10-16T10:00:32;0;;;0;0
27908;BME280;15249;48.092;11.484;2022-10-16T10:01:37;0;;;0;0
27908;BME280;15249;48.092;11.484;2022-10-16T10:02:39;0;;;0;0
27908;BME280;15249;48.092;11.484;2022-10-16T10:03:40;0;;;0;0
27908;BME280;15249;48.092;11.484;2022-10-16T10:04:48;95565.61;;;46.32;54.27344
27908;BME280;15249;48.092;11.484;2022-10-16T10:05:51;95565.61;;;46.32;54.27344
27908;BME280;15249;48.092;11.484;2022-10-16T10:06:55;95565.61;;;46.32;54.27344
27908;BME280;15249;48.092;11.484;2022-10-16T10:07:57;95565.61;;;46.32;54.27344
27908;BME280;15249;48.092;11.484;2022-10-16T10:09:04;95565.61;;;46.32;54.27344
27908;BME280;15249;48.092;11.484;2022-10-16T10:10:18;95565.61;;;46.32;54.27344
27908;BME280;15249;48.092;11.484;2022-10-16T10:11:36;95565.61;;;46.32;54.27344
27908;BME280;15249;48.092;11.484;2022-10-16T10:12:37;95565.61;;;46.32;54.27344
27908;BME280;15249;48.092;11.484;2022-10-16T10:13:38;95565.61;;;46.32;54.27344
27908;BME280;15249;48.092;11.484;2022-10-16T10:14:42;95565.61;;;46.32;54.27344
27908;BME280;15249;48.092;11.484;2022-10-16T10:15:45;95559.78;;;46.83;54.37891
27908;BME280;15249;48.092;11.484;2022-10-16T10:16:46;95559.78;;;46.83;54.37891
27908;BME280;15249;48.092;11.484;2022-10-16T10:17:49;95559.78;;;46.83;54.37891
27908;BME280;15249;48.092;11.484;2022-10-16T10:18:58;95559.78;;;46.83;54.37891
27908;BME280;15249;48.092;11.484;2022-10-16T10:19:59;95559.78;;;46.83;54.37891
27908;BME280;15249;48.092;11.484;2022-10-16T10:21:02;95559.78;;;46.83;54.37891
27908;BME280;15249;48.092;11.484;2022-10-16T10:22:15;95559.78;;;46.83;54.37891
27908;BME280;15249;48.092;11.484;2022-10-16T10:23:21;95559.78;;;46.83;54.37891
27908;BME280;15249;48.092;11.484;2022-10-16T10:24:21;95559.78;;;46.83;54.37891
27908;BME280;15249;48.092;11.484;2022-10-16T10:25:45;95562.36;;;47.08;54.59473
27908;BME280;15249;48.092;11.484;2022-10-16T10:26:55;95562.36;;;47.08;54.59473
27908;BME280;15249;48.092;11.484;2022-10-16T10:28:09;95562.36;;;47.08;54.59473
27908;BME280;15249;48.092;11.484;2022-10-16T10:29:20;95562.36;;;47.08;54.59473
27908;BME280;15249;48.092;11.484;2022-10-16T10:30:26;95562.36;;;47.08;54.59473
27908;BME280;15249;48.092;11.484;2022-10-16T10:31:34;95562.36;;;47.08;54.59473
27908;BME280;15249;48.092;11.484;2022-10-16T10:32:41;95562.36;;;47.08;54.59473
27908;BME280;15249;48.092;11.484;2022-10-16T10:33:53;95562.36;;;47.08;54.59473
27908;BME280;15249;48.092;11.484;2022-10-16T10:35:05;95562.36;;;47.08;54.59473
27908;BME280;15249;48.092;11.484;2022-10-16T10:36:20;95562.36;;;47.08;54.59473
27908;BME280;15249;48.092;11.484;2022-10-16T10:37:37;95566.49;;;46.55;55.4834
27908;BME280;15249;48.092;11.484;2022-10-16T10:38:48;95566.49;;;46.55;55.4834
27908;BME280;15249;48.092;11.484;2022-10-16T10:39:57;95566.49;;;46.55;55.4834
27908;BME280;15249;48.092;11.484;2022-10-16T10:41:12;95566.49;;;46.55;55.4834
27908;BME280;15249;48.092;11.484;2022-10-16T10:42:22;95566.49;;;46.55;55.4834
27908;BME280;15249;48.092;11.484;2022-10-16T10:43:39;95566.49;;;46.55;55.4834
27908;BME280;15249;48.092;11.484;2022-10-16T10:44:56;95566.49;;;46.55;55.4834
27908;BME280;15249;48.092;11.484;2022-10-16T10:46:00;95566.49;;;46.55;55.4834
27908;BME280;15249;48.092;11.484;2022-10-16T10:47:10;95559.33;;;46.44;56.37305
27908;BME280;15249;48.092;11.484;2022-10-16T10:48:23;95559.33;;;46.44;56.37305
27908;BME280;15249;48.092;11.484;2022-10-16T10:49:38;95559.33;;;46.44;56.37305
27908;BME280;15249;48.092;11.484;2022-10-16T10:50:44;95559.33;;;46.44;56.37305
27908;BME280;15249;48.092;11.484;2022-10-16T10:51:57;95559.33;;;46.44;56.37305
27908;BME280;15249;48.092;11.484;2022-10-16T10:53:10;95559.33;;;46.44;56.37305
27908;BME280;15249;48.092;11.484;2022-10-16T10:54:18;95559.33;;;46.44;56.37305
27908;BME280;15249;48.092;11.484;2022-10-16T10:55:28;95559.33;;;46.44;56.37305
27908;BME280;15249;48.092;11.484;2022-10-16T10:56:43;95559.33;;;46.44;56.37305
27908;BME280;15249;48.092;11.484;2022-10-16T10:57:55;95558.15;;;46.08;58.22559
27908;BME280;15249;48.092;11.484;2022-10-16T10:59:40;95558.15;;;46.08;58.22559
27908;BME280;15249;48.092;11.484;2022-10-16T11:00:51;95558.15;;;46.08;58.22559
27908;BME280;15249;48.092;11.484;2022-10-16T11:01:58;95558.15;;;46.08;58.22559
27908;BME280;15249;48.092;11.484;2022-10-16T11:03:08;95558.15;;;46.08;58.22559
27908;BME280;15249;48.092;11.484;2022-10-16T11:08:13;95558.15;;;46.08;58.22559
27908;BME280;15249;48.092;11.484;2022-10-16T11:09:19;95553.25;;;45.37;59.78418
27908;BME280;15249;48.092;11.484;2022-10-16T11:10:24;95553.25;;;45.37;59.78418
27908;BME280;15249;48.092;11.484;2022-10-16T11:11:30;95553.25;;;45.37;59.78418
27908;BME280;15249;48.092;11.484;2022-10-16T11:12:36;95553.25;;;45.37;59.78418
27908;BME280;15249;48.092;11.484;2022-10-16T11:13:44;95553.25;;;45.37;59.78418
27908;BME280;15249;48.092;11.484;2022-10-16T11:14:50;95553.25;;;45.37;59.78418
27908;BME280;15249;48.092;11.484;2022-10-16T11:15:58;95553.25;;;45.37;59.78418
27908;BME280;15249;48.092;11.484;2022-10-16T11:17:05;95553.25;;;45.37;59.78418
27908;BME280;15249;48.092;11.484;2022-10-16T11:18:16;95553.25;;;45.37;59.78418
27908;BME280;15249;48.092;11.484;2022-10-16T11:19:28;95550.95;;;43.85;63.95313
27908;BME280;15249;48.092;11.484;2022-10-16T11:20:34;95550.95;;;43.85;63.95313
27908;BME280;15249;48.092;11.484;2022-10-16T11:21:41;95550.95;;;43.85;63.95313
27908;BME280;15249;48.092;11.484;2022-10-16T11:22:47;95550.95;;;43.85;63.95313
27908;BME280;15249;48.092;11.484;2022-10-16T11:23:53;95550.95;;;43.85;63.95313
27908;BME280;15249;48.092;11.484;2022-10-16T11:25:02;95550.95;;;43.85;63.95313
27908;BME280;15249;48.092;11.484;2022-10-16T11:26:13;95550.95;;;43.85;63.95313
27908;BME280;15249;48.092;11.484;2022-10-16T11:27:17;95550.95;;;43.85;63.95313
27908;BME280;15249;48.092;11.484;2022-10-16T11:28:24;95550.95;;;43.85;63.95313
27908;BME280;15249;48.092;11.484;2022-10-16T11:29:30;95550.95;;;43.85;63.95313
27908;BME280;15249;48.092;11.484;2022-10-16T11:30:34;95550.95;;;43.85;63.95313
27908;BME280;15249;48.092;11.484;2022-10-16T11:31:42;95550.95;;;43.85;63.95313
27908;BME280;15249;48.092;11.484;2022-10-16T11:32:56;95550.95;;;43.85;63.95313
27908;BME280;15249;48.092;11.484;2022-10-16T11:34:04;95550.95;;;43.85;63.95313
27908;BME280;15249;48.092;11.484;2022-10-16T11:35:14;95550.95;;;43.85;63.95313
27908;BME280;15249;48.092;11.484;2022-10-16T11:36:21;95550.95;;;43.85;63.95313
27908;BME280;15249;48.092;11.484;2022-10-16T11:37:26;95550.95;;;43.85;63.95313
27908;BME280;15249;48.092;11.484;2022-10-16T11:38:36;95550.95;;;43.85;63.95313
27908;BME280;15249;48.092;11.484;2022-10-16T11:39:39;95550.95;;;43.85;63.95313
27908;BME280;15249;48.092;11.484;2022-10-16T11:40:43;95550.95;;;43.85;63.95313
27908;BME280;15249;48.092;11.484;2022-10-16T11:41:48;95550.95;;;43.85;63.95313
27908;BME280;15249;48.092;11.484;2022-10-16T11:42:54;95550.95;;;43.85;63.95313
27908;BME280;15249;48.092;11.484;2022-10-16T11:44:09;95550.95;;;43.85;63.95313
27908;BME280;15249;48.092;11.484;2022-10-16T11:45:24;95550.95;;;43.85;63.95313
27908;BME280;15249;48.092;11.484;2022-10-16T11:46:27;95550.95;;;43.85;63.95313
27908;BME280;15249;48.092;11.484;2022-10-16T11:47:33;95550.95;;;43.85;63.95313
27908;BME280;15249;48.092;11.484;2022-10-16T11:48:39;95550.95;;;43.85;63.95313
27908;BME280;15249;48.092;11.484;2022-10-16T11:49:42;95550.95;;;43.85;63.95313
27908;BME280;15249;48.092;11.484;2022-10-16T11:50:49;95550.95;;;43.85;63.95313
27908;BME280;15249;48.092;11.484;2022-10-16T11:51:59;95551.45;;;39.42;77.87207
27908;BME280;15249;48.092;11.484;2022-10-16T11:53:13;95551.45;;;39.42;77.87207
27908;BME280;15249;48.092;11.484;2022-10-16T11:54:21;95551.45;;;39.42;77.87207
27908;BME280;15249;48.092;11.484;2022-10-16T11:55:29;95551.45;;;39.42;77.87207
27908;BME280;15249;48.092;11.484;2022-10-16T11:56:36;95551.45;;;39.42;77.87207
27908;BME280;15249;48.092;11.484;2022-10-16T11:57:43;95551.45;;;39.42;77.87207
27908;BME280;15249;48.092;11.484;2022-10-16T11:58:53;95551.45;;;39.42;77.87207
27908;BME280;15249;48.092;11.484;2022-10-16T11:59:58;95551.45;;;39.42;77.87207
27908;BME280;15249;48.092;11.484;2022-10-16T12:01:10;95551.45;;;39.42;77.87207
27908;BME280;15249;48.092;11.484;2022-10-16T12:02:30;95546.69;;;39.87;77.41016
27908;BME280;15249;48.092;11.484;2022-10-16T12:03:38;95546.69;;;39.87;77.41016
27908;BME280;15249;48.092;11.484;2022-10-16T12:04:49;95546.69;;;39.87;77.41016
27908;BME280;15249;48.092;11.484;2022-10-16T12:05:57;95546.69;;;39.87;77.41016
27908;BME280;15249;48.092;11.484;2022-10-16T12:07:04;95546.69;;;39.87;77.41016
27908;BME280;15249;48.092;11.484;2022-10-16T12:08:09;95546.69;;;39.87;77.41016
27908;BME280;15249;48.092;11.484;2022-10-16T12:09:16;95546.69;;;39.87;77.41016
27908;BME280;15249;48.092;11.484;2022-10-16T12:10:22;95546.69;;;39.87;77.41016
27908;BME280;15249;48.092;11.484;2022-10-16T12:11:32;95546.69;;;39.87;77.41016
27908;BME280;15249;48.092;11.484;2022-10-16T12:12:38;95546.69;;;39.87;77.41016
27908;BME280;15249;48.092;11.484;2022-10-16T12:13:40;95546.69;;;39.87;77.41016
27908;BME280;15249;48.092;11.484;2022-10-16T12:14:41;95546.69;;;39.87;77.41016
27908;BME280;15249;48.092;11.484;2022-10-16T12:15:42;95546.69;;;39.87;77.41016
27908;BME280;15249;48.092;11.484;2022-10-16T12:16:52;95546.69;;;39.87;77.41016
27908;BME280;15249;48.092;11.484;2022-10-16T12:17:54;95546.69;;;39.87;77.41016
27908;BME280;15249;48.092;11.484;2022-10-16T12:19:10;95546.69;;;39.87;77.41016
27908;BME280;15249;48.092;11.484;2022-10-16T12:20:23;95546.69;;;39.87;77.41016
27908;BME280;15249;48.092;11.484;2022-10-16T12:21:30;95546.69;;;39.87;77.41016
27908;BME280;15249;48.092;11.484;2022-10-16T12:22:31;95546.69;;;39.87;77.41016
27908;BME280;15249;48.092;11.484;2022-10-16T12:23:33;95547.27;;;41.77;72.16602
27908;BME280;15249;48.092;11.484;2022-10-16T12:24:39;95547.27;;;41.77;72.16602
27908;BME280;15249;48.092;11.484;2022-10-16T12:25:53;95547.27;;;41.77;72.16602
27908;BME280;15249;48.092;11.484;2022-10-16T12:26:55;95547.27;;;41.77;72.16602
27908;BME280;15249;48.092;11.484;2022-10-16T12:28:00;95547.27;;;41.77;72.16602
27908;BME280;15249;48.092;11.484;2022-10-16T12:29:14;95547.27;;;41.77;72.16602
27908;BME280;15249;48.092;11.484;2022-10-16T12:30:22;95547.27;;;41.77;72.16602
27908;BME280;15249;48.092;11.484;2022-10-16T12:31:36;95547.27;;;41.77;72.16602
27908;BME280;15249;48.092;11.484;2022-10-16T12:32:40;95547.27;;;41.77;72.16602
27908;BME280;15249;48.092;11.484;2022-10-16T12:33:43;95546.89;;;41.72;70.39063
27908;BME280;15249;48.092;11.484;2022-10-16T12:34:52;95546.89;;;41.72;70.39063
27908;BME280;15249;48.092;11.484;2022-10-16T12:35:53;95546.89;;;41.72;70.39063
27908;BME280;15249;48.092;11.484;2022-10-16T12:36:55;95546.89;;;41.72;70.39063
27908;BME280;15249;48.092;11.484;2022-10-16T12:38:14;95546.89;;;41.72;70.39063
27908;BME280;15249;48.092;11.484;2022-10-16T12:39:21;95546.89;;;41.72;70.39063
27908;BME280;15249;48.092;11.484;2022-10-16T12:40:27;95546.89;;;41.72;70.39063
27908;BME280;15249;48.092;11.484;2022-10-16T12:41:30;95546.89;;;41.72;70.39063
27908;BME280;15249;48.092;11.484;2022-10-16T12:42:33;95546.89;;;41.72;70.39063
27908;BME280;15249;48.092;11.484;2022-10-16T12:43:38;95546.89;;;41.72;70.39063
27908;BME280;15249;48.092;11.484;2022-10-16T12:44:39;95543.65000000001;;;41.87;70.47266
27908;BME280;15249;48.092;11.484;2022-10-16T12:45:40;95543.65000000001;;;41.87;70.47266
27908;BME280;15249;48.092;11.484;2022-10-16T12:46:40;95543.65000000001;;;41.87;70.47266
27908;BME280;15249;48.092;11.484;2022-10-16T12:47:49;95543.65000000001;;;41.87;70.47266
27908;BME280;15249;48.092;11.484;2022-10-16T12:48:50;95543.65000000001;;;41.87;70.47266
27908;BME280;15249;48.092;11.484;2022-10-16T12:49:53;95543.65000000001;;;41.87;70.47266
27908;BME280;15249;48.092;11.484;2022-10-16T12:50:54;95543.65000000001;;;41.87;70.47266
27908;BME280;15249;48.092;11.484;2022-10-16T12:51:55;95543.65000000001;;;41.87;70.47266
27908;BME280;15249;48.092;11.484;2022-10-16T12:52:55;95543.65000000001;;;41.87;70.47266
27908;BME280;15249;48.092;11.484;2022-10-16T12:53:59;95543.65000000001;;;41.87;70.47266
27908;BME280;15249;48.092;11.484;2022-10-16T12:55:00;95535.38;;;41.73;69.34277
27908;BME280;15249;48.092;11.484;2022-10-16T12:56:05;95535.38;;;41.73;69.34277
27908;BME280;15249;48.092;11.484;2022-10-16T12:57:26;95535.38;;;41.73;69.34277
27908;BME280;15249;48.092;11.484;2022-10-16T12:58:46;95535.38;;;41.73;69.34277
27908;BME280;15249;48.092;11.484;2022-10-16T12:59:53;95535.38;;;41.73;69.34277
27908;BME280;15249;48.092;11.484;2022-10-16T13:01:03;95535.38;;;41.73;69.34277
27908;BME280;15249;48.092;11.484;2022-10-16T13:02:40;95535.38;;;41.73;69.34277
27908;BME280;15249;48.092;11.484;2022-10-16T13:04:02;95535.38;;;41.73;69.34277
27908;BME280;15249;48.092;11.484;2022-10-16T13:05:22;95535.38;;;41.73;69.34277
27908;BME280;15249;48.092;11.484;2022-10-16T13:06:32;95535.38;;;41.73;69.34277
27908;BME280;15249;48.092;11.484;2022-10-16T13:07:48;95535.38;;;41.73;69.34277
27908;BME280;15249;48.092;11.484;2022-10-16T13:10:08;95535.38;;;41.73;69.34277
27908;BME280;15249;48.092;11.484;2022-10-16T13:11:19;95535.38;;;41.73;69.34277
27908;BME280;15249;48.092;11.484;2022-10-16T13:12:36;95535.38;;;41.73;69.34277
27908;BME280;15249;48.092;11.484;2022-10-16T13:13:53;95535.38;;;41.73;69.34277
27908;BME280;15249;48.092;11.484;2022-10-16T13:15:06;95535.38;;;41.73;69.34277
27908;BME280;15249;48.092;11.484;2022-10-16T13:16:15;95535.38;;;41.73;69.34277
27908;BME280;15249;48.092;11.484;2022-10-16T13:17:23;95532.05;;;41.08;69.84375
27908;BME280;15249;48.092;11.484;2022-10-16T13:18:41;95532.05;;;41.08;69.84375
27908;BME280;15249;48.092;11.484;2022-10-16T13:19:48;95532.05;;;41.08;69.84375
27908;BME280;15249;48.092;11.484;2022-10-16T13:21:00;95532.05;;;41.08;69.84375
27908;BME280;15249;48.092;11.484;2022-10-16T13:22:11;95532.05;;;41.08;69.84375
27908;BME280;15249;48.092;11.484;2022-10-16T13:23:18;95532.05;;;41.08;69.84375
27908;BME280;15249;48.092;11.484;2022-10-16T13:24:29;95532.05;;;41.08;69.84375
27908;BME280;15249;48.092;11.484;2022-10-16T13:25:46;95532.05;;;41.08;69.84375
27908;BME280;15249;48.092;11.484;2022-10-16T13:26:55;95532.05;;;41.08;69.84375
27908;BME280;15249;48.092;11.484;2022-10-16T13:28:00;95539.81;;;40.64;69.42188
27908;BME280;15249;48.092;11.484;2022-10-16T13:29:01;95539.81;;;40.64;69.42188
27908;BME280;15249;48.092;11.484;2022-10-16T13:30:11;95539.81;;;40.64;69.42188
27908;BME280;15249;48.092;11.484;2022-10-16T13:31:17;95539.81;;;40.64;69.42188
27908;BME280;15249;48.092;11.484;2022-10-16T13:32:19;95539.81;;;40.64;69.42188
27908;BME280;15249;48.092;11.484;2022-10-16T13:33:25;95539.81;;;40.64;69.42188
27908;BME280;15249;48.092;11.484;2022-10-16T13:34:29;95539.81;;;40.64;69.42188
27908;BME280;15249;48.092;11.484;2022-10-16T13:35:32;95539.81;;;40.64;69.42188
27908;BME280;15249;48.092;11.484;2022-10-16T13:36:35;95539.81;;;40.64;69.42188
27908;BME280;15249;48.092;11.484;2022-10-16T13:37:36;95539.81;;;40.64;69.42188
27908;BME280;15249;48.092;11.484;2022-10-16T13:38:36;95544.33;;;39.89;70.4502
27908;BME280;15249;48.092;11.484;2022-10-16T13:39:37;95544.33;;;39.89;70.4502
27908;BME280;15249;48.092;11.484;2022-10-16T13:40:48;95544.33;;;39.89;70.4502
27908;BME280;15249;48.092;11.484;2022-10-16T13:42:00;95544.33;;;39.89;70.4502
27908;BME280;15249;48.092;11.484;2022-10-16T13:43:02;95544.33;;;39.89;70.4502
27908;BME280;15249;48.092;11.484;2022-10-16T13:44:03;95544.33;;;39.89;70.4502
27908;BME280;15249;48.092;11.484;2022-10-16T13:45:05;95544.33;;;39.89;70.4502
27908;BME280;15249;48.092;11.484;2022-10-16T13:46:10;95544.33;;;39.89;70.4502
27908;BME280;15249;48.092;11.484;2022-10-16T13:47:17;95544.33;;;39.89;70.4502
27908;BME280;15249;48.092;11.484;2022-10-16T13:48:18;95544.33;;;39.89;70.4502
27908;BME280;15249;48.092;11.484;2022-10-16T13:49:20;95537.23;;;39.06;70.9209
27908;BME280;15249;48.092;11.484;2022-10-16T13:50:21;95537.23;;;39.06;70.9209
27908;BME280;15249;48.092;11.484;2022-10-16T13:51:21;95537.23;;;39.06;70.9209
27908;BME280;15249;48.092;11.484;2022-10-16T13:52:22;95537.23;;;39.06;70.9209
27908;BME280;15249;48.092;11.484;2022-10-16T13:53:22;95537.23;;;39.06;70.9209
27908;BME280;15249;48.092;11.484;2022-10-16T13:54:24;95537.23;;;39.06;70.9209
27908;BME280;15249;48.092;11.484;2022-10-16T13:55:25;95537.23;;;39.06;70.9209
27908;BME280;15249;48.092;11.484;2022-10-16T13:56:27;95537.23;;;39.06;70.9209
27908;BME280;15249;48.092;11.484;2022-10-16T13:57:29;95537.23;;;39.06;70.9209
27908;BME280;15249;48.092;11.484;2022-10-16T13:58:30;95537.23;;;39.06;70.9209
27908;BME280;15249;48.092;11.484;2022-10-16T13:59:34;95553.11;;;37.76;71.3418
27908;BME280;15249;48.092;11.484;2022-10-16T14:00:35;95553.11;;;37.76;71.3418
27908;BME280;15249;48.092;11.484;2022-10-16T14:01:41;95553.11;;;37.76;71.3418
27908;BME280;15249;48.092;11.484;2022-10-16T14:02:42;95553.11;;;37.76;71.3418
27908;BME280;15249;48.092;11.484;2022-10-16T14:03:44;95553.11;;;37.76;71.3418
27908;BME280;15249;48.092;11.484;2022-10-16T14:04:46;95553.11;;;37.76;71.3418
27908;BME280;15249;48.092;11.484;2022-10-16T14:05:49;95553.11;;;37.76;71.3418
27908;BME280;15249;48.092;11.484;2022-10-16T14:06:51;95553.11;;;37.76;71.3418
27908;BME280;15249;48.092;11.484;2022-10-16T14:07:52;95553.11;;;37.76;71.3418
27908;BME280;15249;48.092;11.484;2022-10-16T14:08:59;95553.11;;;37.76;71.3418
27908;BME280;15249;48.092;11.484;2022-10-16T14:10:04;95561.6;;;35.43;74.75098
27908;BME280;15249;48.092;11.484;2022-10-16T14:11:05;95561.6;;;35.43;74.75098
27908;BME280;15249;48.092;11.484;2022-10-16T14:12:10;95561.6;;;35.43;74.75098
27908;BME280;15249;48.092;11.484;2022-10-16T14:13:15;95561.6;;;35.43;74.75098
27908;BME280;15249;48.092;11.484;2022-10-16T14:14:17;95561.6;;;35.43;74.75098
27908;BME280;15249;48.092;11.484;2022-10-16T14:15:19;95561.6;;;35.43;74.75098
27908;BME280;15249;48.092;11.484;2022-10-16T14:16:21;95561.6;;;35.43;74.75098
27908;BME280;15249;48.092;11.484;2022-10-16T14:17:25;95561.6;;;35.43;74.75098
27908;BME280;15249;48.092;11.484;2022-10-16T14:18:27;95561.6;;;35.43;74.75098
27908;BME280;15249;48.092;11.484;2022-10-16T14:19:29;95561.6;;;35.43;74.75098
27908;BME280;15249;48.092;11.484;2022-10-16T14:20:33;95561.6;;;35.43;74.75098
27908;BME280;15249;48.092;11.484;2022-10-16T14:21:34;95561.6;;;35.43;74.75098
27908;BME280;15249;48.092;11.484;2022-10-16T14:22:37;95561.6;;;35.43;74.75098
27908;BME280;15249;48.092;11.484;2022-10-16T14:23:40;95561.6;;;35.43;74.75098
27908;BME280;15249;48.092;11.484;2022-10-16T14:24:41;95561.6;;;35.43;74.75098
27908;BME280;15249;48.092;11.484;2022-10-16T14:25:41;95561.6;;;35.43;74.75098